createdAt,value
2023-03-08T00:06:48.942Z,12.47
2023-03-08T00:21:53.390Z,12.83
2023-03-08T00:36:57.877Z,13.50
2023-03-08T00:52:02.566Z,12.90
2023-03-08T01:07:07.123Z,11.90
2023-03-08T01:22:12.053Z,11.70
2023-03-08T01:37:16.512Z,10.87
2023-03-08T01:52:26.069Z,12.37
2023-03-08T02:07:31.587Z,10.20
2023-03-08T02:22:40.573Z,10.10
2023-03-08T02:37:45.174Z,9.80
2023-03-08T02:52:49.627Z,9.40
2023-03-08T03:07:55.304Z,7.60
2023-03-08T03:23:00.965Z,7.90
2023-03-08T03:38:16.418Z,6.90
2023-03-08T03:53:22.825Z,6.37
2023-03-08T04:08:30.313Z,5.90
2023-03-08T04:23:36.515Z,4.97
2023-03-08T04:38:43.498Z,5.33
2023-03-08T04:53:48.765Z,3.90
2023-03-08T05:08:53.686Z,3.07
2023-03-08T05:24:01.397Z,2.93
2023-03-08T05:39:11.195Z,2.40
2023-03-08T05:54:23.172Z,2.20
2023-03-08T06:09:31.305Z,1.83
2023-03-08T06:24:36.711Z,2.17
2023-03-08T06:39:45.103Z,1.53
2023-03-08T06:54:49.755Z,1.43
2023-03-08T07:09:54.286Z,0.93
2023-03-08T07:24:58.786Z,1.03
2023-03-08T07:40:04.538Z,1.90
2023-03-08T07:55:11.299Z,1.90
2023-03-08T08:10:15.838Z,2.00
2023-03-08T08:25:21.361Z,2.43
2023-03-08T08:40:27.377Z,3.50
2023-03-08T08:55:32.767Z,2.60
2023-03-08T09:10:40.463Z,2.03
2023-03-08T09:25:44.994Z,2.70
2023-03-08T09:40:57.305Z,2.50
2023-03-08T09:56:05.148Z,2.90
2023-03-08T10:11:17.648Z,2.70
2023-03-08T10:26:22.162Z,2.00
2023-03-08T10:41:28.159Z,2.00
2023-03-08T10:56:38.364Z,2.10
2023-03-08T11:11:43.852Z,1.83
2023-03-08T11:27:02.006Z,1.77
2023-03-08T11:42:15.392Z,2.97
2023-03-08T11:57:20.655Z,1.80
2023-03-08T12:12:31.949Z,2.23
2023-03-08T12:27:42.197Z,3.20
2023-03-08T12:42:46.790Z,2.20
2023-03-08T12:57:53.695Z,2.20
2023-03-08T13:13:31.110Z,3.97
2023-03-08T13:28:47.794Z,1.77
2023-03-08T13:44:01.871Z,1.07
2023-03-08T13:59:06.439Z,1.40
2023-03-08T14:14:23.711Z,1.13
2023-03-08T14:29:29.750Z,1.43
2023-03-08T14:44:35.877Z,1.30
2023-03-08T14:59:43.154Z,0.90
2023-03-08T15:14:47.594Z,0.80
2023-03-08T15:29:52.174Z,0.80
2023-03-08T15:44:56.590Z,1.03
2023-03-08T16:00:01.048Z,1.10
2023-03-08T16:15:06.457Z,0.90
2023-03-08T16:30:12.564Z,0.97
2023-03-08T16:45:17.392Z,1.80
2023-03-08T17:00:22.826Z,2.17
2023-03-08T17:15:27.325Z,1.70
2023-03-08T17:30:32.341Z,2.20
2023-03-08T17:45:36.755Z,1.30
2023-03-08T18:00:41.164Z,3.23
2023-03-08T18:15:45.656Z,3.93
2023-03-08T18:30:50.142Z,5.50
2023-03-08T18:45:56.555Z,4.07
2023-03-08T19:01:02.889Z,4.87
2023-03-08T19:16:16.526Z,5.43
2023-03-08T19:31:20.960Z,6.93
2023-03-08T19:46:25.614Z,5.93
2023-03-08T20:01:30.321Z,7.77
2023-03-08T20:16:35.299Z,6.97
2023-03-08T20:31:39.892Z,6.70
2023-03-08T20:46:44.987Z,5.20
2023-03-08T21:01:49.767Z,18.63
2023-03-08T21:16:54.399Z,3.87
2023-03-08T21:31:59.399Z,2.73
2023-03-08T21:47:03.920Z,1.80
2023-03-08T22:02:10.957Z,1.10
2023-03-08T22:17:15.407Z,1.20
2023-03-08T22:32:20.011Z,1.77
2023-03-08T22:47:24.493Z,1.20
2023-03-08T23:02:31.192Z,1.33
2023-03-08T23:17:35.700Z,1.40
2023-03-08T23:32:42.973Z,1.27
2023-03-08T23:47:47.587Z,3.30
